Time;durP1;ratioP1;P1;durP2;ratioP2;P2;SDS_P1;SDS_P2;PMS_P1;PMS_P2;Temp;Humidity;BMP_temperature;BMP_pressure;BME280_temperature;BME280_humidity;BME280_pressure;Samples;Min_cycle;Max_cycle;Signal;HPM_P1;HPM_P2
2022/01/05 00:01:00;;;;;;;22.20;3.58;;;4.00;99.90;;;;;;5093867;28;20204;-87
2022/01/05 00:03:26;;;;;;;;;;;6.90;99.90;;;;;;5077631;28;20055;-88
2022/01/05 00:05:52;;;;;;;11.77;3.10;;;4.30;99.90;;;;;;5097998;27;19919;-89
2022/01/05 00:08:20;;;;;;;16.63;2.95;;;;;;;;;;5113615;27;20047;-88
2022/01/05 00:10:46;;;;;;;22.05;3.40;;;4.60;99.90;;;;;;5113868;27;20053;-88
2022/01/05 00:13:12;;;;;;;22.88;4.82;;;;;;;;;;5096829;27;20039;-88
2022/01/05 00:15:38;;;;;;;144.27;29.90;;;4.70;99.90;;;;;;5114229;27;20047;-88
2022/01/05 00:18:06;;;;;;;20.70;10.52;;;4.70;99.90;;;;;;5114177;27;20112;-88
2022/01/05 00:20:32;;;;;;;1869.47;534.05;;;3.40;99.90;;;;;;5113624;27;20463;-88
2022/01/05 00:22:58;;;;;;;20.75;3.92;;;;;;;;;;5097201;27;20138;-89
2022/01/05 00:25:28;;;;;;;21.40;5.78;;;;;;;;;;5113353;27;20070;-88
2022/01/05 00:27:54;;;;;;;163.50;15.73;;;4.40;99.90;;;;;;5113887;27;20079;-89
2022/01/05 00:30:22;;;;;;;22.08;7.20;;;3.40;99.90;;;;;;5109905;28;20117;-89
2022/01/05 00:32:48;;;;;;;24.73;9.45;;;;;;;;;;5076971;28;20119;-90
2022/01/05 00:35:15;;;;;;;21.52;5.05;;;;;;;;;;5093558;28;20051;-90
2022/01/05 00:37:46;;;;;;;16.67;4.60;;;4.30;99.90;;;;;;5091894;28;20391;-90
2022/01/05 00:40:21;;;;;;;19.73;6.60;;;4.30;99.90;;;;;;5092260;28;20389;-90
2022/01/05 00:42:57;;;;;;;15.98;5.60;;;;;;;;;;5110358;28;20047;-90
2022/01/05 00:45:25;;;;;;;19.20;6.47;;;6.70;99.90;;;;;;5093271;28;20074;-90
2022/01/05 00:47:51;;;;;;;720.75;84.50;;;;;;;;;;5093263;28;20430;-90
2022/01/05 00:50:18;;;;;;;15.77;5.68;;;;;;;;;;5092889;28;20043;-93
2022/01/05 00:52:43;;;;;;;21.92;9.02;;;4.60;99.90;;;;;;5075750;28;20093;-88
2022/01/05 00:55:17;;;;;;;125.32;27.20;;;3.60;99.90;;;;;;5092934;28;20055;-90
2022/01/05 00:57:45;;;;;;;30.63;16.85;;;4.70;99.90;;;;;;5076888;28;20197;-87
2022/01/05 01:00:21;;;;;;;17.27;11.30;;;6.30;99.90;;;;;;5093267;28;20100;-87
2022/01/05 01:02:49;;;;;;;;;;;4.70;99.90;;;;;;5077895;28;20320;-90
2022/01/05 01:05:15;;;;;;;37.90;12.00;;;;;;;;;;5109961;28;20000;-88
2022/01/05 01:07:45;;;;;;;360.08;203.85;;;4.70;99.90;;;;;;5075436;28;20044;-87
2022/01/05 01:10:11;;;;;;;24.05;11.00;;;7.80;99.90;;;;;;5092827;28;20044;-89
2022/01/05 01:12:37;;;;;;;656.50;245.97;;;;;;;;;;5096487;28;20043;-90
2022/01/05 01:15:06;;;;;;;19.90;7.25;;;4.60;99.90;;;;;;5080743;28;20039;-90
2022/01/05 01:17:35;;;;;;;24.08;12.98;;;5.00;99.90;;;;;;5097034;28;20048;-89
2022/01/05 01:20:04;;;;;;;55.92;12.45;;;4.50;99.90;;;;;;5097113;28;20047;-90
2022/01/05 01:22:32;;;;;;;79.07;72.57;;;4.20;99.90;;;;;;5080547;28;20047;-90
2022/01/05 01:25:02;;;;;;;18.15;11.93;;;5.90;99.90;;;;;;5097691;28;20052;-88
2022/01/05 01:27:40;;;;;;;31.30;27.20;;;4.40;99.90;;;;;;5097759;28;20051;-89
2022/01/05 01:30:09;;;;;;;28.42;18.33;;;4.60;99.90;;;;;;5109372;28;20051;-89
2022/01/05 01:32:36;;;;;;;21.92;14.38;;;3.00;99.90;;;;;;5097272;28;20066;-90
2022/01/05 01:35:03;;;;;;;53.63;48.75;;;4.30;99.90;;;;;;5096984;28;20052;-89
2022/01/05 01:37:32;;;;;;;41.08;37.13;;;;;;;;;;5113583;28;20043;-92
2022/01/05 01:40:00;;;;;;;30.60;27.75;;;4.40;99.90;;;;;;5115035;27;20495;-89
2022/01/05 01:42:27;;;;;;;102.82;62.88;;;;;;;;;;5097315;27;20488;-89
2022/01/05 01:45:10;;;;;;;79.07;67.40;;;;;;;;;;5117630;27;20054;-90
2022/01/05 01:47:47;;;;;;;26.25;23.60;;;4.10;99.90;;;;;;5104339;27;20062;-90
2022/01/05 01:50:16;;;;;;;40.88;31.77;;;;;;;;;;5118024;27;20142;-91
2022/01/05 01:52:44;;;;;;;995.03;572.80;;;6.20;99.90;;;;;;5115657;27;20043;-89
2022/01/05 01:55:16;;;;;;;33.70;30.23;;;4.30;99.90;;;;;;5116390;27;20089;-89
2022/01/05 01:57:49;;;;;;;270.35;231.40;;;;;;;;;;5117044;27;20051;-89
2022/01/05 02:00:23;;;;;;;62.53;57.47;;;4.50;99.90;;;;;;5116639;27;20039;-89
2022/01/05 02:02:49;;;;;;;108.53;99.15;;;;;;;;;;5116343;27;20047;-88
2022/01/05 02:05:20;;;;;;;159.98;101.88;;;4.20;99.90;;;;;;5116499;27;20178;-88
2022/01/05 02:07:46;;;;;;;84.20;77.32;;;5.00;99.90;;;;;;5112454;28;20043;-89
2022/01/05 02:10:18;;;;;;;533.90;140.87;;;4.20;99.90;;;;;;5095907;28;20087;-88
2022/01/05 02:12:47;;;;;;;183.50;102.70;;;4.10;99.90;;;;;;5078461;28;20055;-88
2022/01/05 02:15:14;;;;;;;1986.00;702.35;;;4.10;99.90;;;;;;5096655;28;20439;-89
2022/01/05 02:20:21;;;;;;;32.83;24.60;;;;;;;;;;5113130;28;20511;-90
2022/01/05 02:22:51;;;;;;;543.30;375.67;;;4.10;99.90;;;;;;5094808;28;20043;-89
2022/01/05 02:25:27;;;;;;;36.33;30.60;;;6.10;99.90;;;;;;5095929;28;20040;-90
2022/01/05 02:27:55;;;;;;;149.07;82.10;;;4.20;99.90;;;;;;5095356;28;20062;-90
2022/01/05 02:30:22;;;;;;;;;;;4.10;99.90;;;;;;5113161;28;20039;-89
2022/01/05 02:32:51;;;;;;;81.07;26.30;;;4.90;99.90;;;;;;5095301;28;19919;-90
2022/01/05 02:35:18;;;;;;;110.70;58.73;;;;;;;;;;5095499;28;20040;-89
2022/01/05 02:37:50;;;;;;;28.67;22.55;;;;;;;;;;5094867;28;20055;-90
2022/01/05 02:40:20;;;;;;;218.18;147.13;;;2.60;99.90;;;;;;5094400;28;20052;-90
2022/01/05 02:42:49;;;;;;;36.75;24.95;;;;;;;;;;5058202;28;20052;-91
2022/01/05 02:45:18;;;;;;;221.98;179.02;;;;;;;;;;5058357;28;20146;-91
2022/01/05 02:47:50;;;;;;;31.30;26.23;;;;;;;;;;5074479;28;20529;-90
2022/01/05 02:50:19;;;;;;;97.75;89.68;;;;;;;;;;5075198;28;20044;-89
2022/01/05 02:52:45;;;;;;;455.23;181.05;;;4.60;99.90;;;;;;5057481;28;20467;-89
2022/01/05 02:55:12;;;;;;;74.43;39.47;;;4.00;99.90;;;;;;5078889;28;20039;-89
2022/01/05 02:57:41;;;;;;;819.20;415.35;;;;;;;;;;5060882;28;20054;-89
2022/01/05 03:00:11;;;;;;;498.55;180.45;;;4.30;99.90;;;;;;5062122;28;20138;-90
2022/01/05 03:02:37;;;;;;;232.40;215.38;;;3.50;99.90;;;;;;5078035;28;20044;-90
2022/01/05 03:05:07;;;;;;;271.83;134.95;;;3.70;99.90;;;;;;5112331;28;20047;-90
2022/01/05 03:07:37;;;;;;;323.05;289.52;;;4.30;99.90;;;;;;5078106;28;20054;-89
2022/01/05 03:10:10;;;;;;;162.50;151.25;;;4.40;99.90;;;;;;5078027;28;20487;-90
2022/01/05 03:12:44;;;;;;;222.77;101.95;;;;;;;;;;5077913;28;20047;-90
2022/01/05 03:15:10;;;;;;;94.32;86.43;;;;;;;;;;5078371;28;20040;-90
2022/01/05 03:17:39;;;;;;;124.95;113.43;;;4.30;99.90;;;;;;5078375;28;20142;-90
2022/01/05 03:20:06;;;;;;;153.48;139.75;;;5.60;99.90;;;;;;5078219;28;20036;-92
2022/01/05 03:22:38;;;;;;;1517.60;735.10;;;;;;;;;;5078178;28;20043;-91
2022/01/05 03:25:09;;;;;;;1999.90;865.63;;;4.40;99.90;;;;;;5095015;28;20079;-91
2022/01/05 03:27:37;;;;;;;;;;;4.50;99.90;;;;;;5078345;28;20047;-94
2022/01/05 03:30:06;;;;;;;571.35;337.02;;;;;;;;;;5074658;28;19927;-89
2022/01/05 03:35:24;;;;;;;1345.22;601.85;;;;;;;;;;5059723;28;20048;-91
2022/01/05 03:37:50;;;;;;;36.72;30.63;;;4.30;99.90;;;;;;5072318;28;20071;-90
2022/01/05 03:40:19;;;;;;;359.55;334.83;;;4.70;99.90;;;;;;5080224;28;20126;-91
2022/01/05 03:42:48;;;;;;;243.23;108.57;;;;;;;;;;5092870;27;20051;-91
2022/01/05 03:45:35;;;;;;;1257.80;726.95;;;4.70;99.90;;;;;;5099044;27;20066;-91
2022/01/05 03:48:10;;;;;;;;;;;4.70;99.90;;;;;;5082328;27;20038;-90
2022/01/05 03:50:40;;;;;;;284.48;259.15;;;4.70;99.90;;;;;;5097798;27;19927;-89
2022/01/05 03:53:09;;;;;;;295.25;115.40;;;4.70;99.90;;;;;;5097413;27;20122;-91
2022/01/05 03:55:43;;;;;;;43.40;39.25;;;4.80;99.90;;;;;;5097127;27;20038;-91
2022/01/05 03:58:34;;;;;;;1349.43;673.50;;;3.80;99.90;;;;;;5097776;27;20058;-92
2022/01/05 04:01:05;;;;;;;62.05;54.17;;;4.90;99.90;;;;;;5083310;27;20122;-91
2022/01/05 04:04:00;;;;;;;52.15;46.67;;;4.70;99.90;;;;;;5097556;27;20478;-92
2022/01/05 04:09:51;;;;;;;277.10;253.40;;;4.70;99.90;;;;;;5126131;27;20126;-92
2022/01/05 04:12:29;;;;;;;134.60;125.13;;;5.70;99.90;;;;;;5080662;27;20104;-91
2022/01/05 04:15:44;;;;;;;135.23;126.20;;;4.00;99.90;;;;;;5097278;27;20042;-92
2022/01/05 04:18:23;;;;;;;774.13;226.68;;;;;;;;;;5053031;28;20056;-90
2022/01/05 04:21:11;;;;;;;201.82;163.30;;;5.20;99.90;;;;;;5035716;28;20045;-91
2022/01/05 04:23:54;;;;;;;44.10;39.92;;;4.80;99.90;;;;;;5037823;28;20051;-92
2022/01/05 04:26:27;;;;;;;379.27;319.48;;;2.10;99.90;;;;;;5055858;28;20048;-91
2022/01/05 04:32:09;;;;;;;231.93;215.02;;;;;;;;;;5023792;28;20114;-91
2022/01/05 04:34:51;;;;;;;365.10;197.90;;;4.90;99.90;;;;;;5036219;28;20459;-92
2022/01/05 04:37:20;;;;;;;410.42;312.35;;;;;;;;;;5034047;28;20040;-92
2022/01/05 04:40:02;;;;;;;382.63;353.17;;;5.00;99.90;;;;;;5035211;28;20107;-93
2022/01/05 04:43:02;;;;;;;187.57;171.40;;;5.00;99.90;;;;;;5015032;28;20045;-91
2022/01/05 04:45:55;;;;;;;255.40;235.73;;;4.90;99.90;;;;;;5015694;28;20060;-93
2022/01/05 04:48:35;;;;;;;159.60;147.65;;;4.90;99.90;;;;;;5038945;28;20162;-93
2022/01/05 04:51:09;;;;;;;1999.90;939.40;;;8.20;99.90;;;;;;5058809;28;20048;-88
2022/01/05 04:53:46;;;;;;;249.25;232.00;;;6.00;99.90;;;;;;5074865;28;20048;-90
2022/01/05 04:56:13;;;;;;;1999.90;652.67;;;;;;;;;;5062027;28;20039;-91
2022/01/05 04:58:41;;;;;;;545.65;428.73;;;4.80;99.90;;;;;;5094882;28;20048;-92
2022/01/05 05:01:13;;;;;;;416.65;382.15;;;;;;;;;;5077697;28;20047;-91
2022/01/05 05:03:42;;;;;;;1999.90;867.42;;;;;;;;;;5062098;28;20058;-91
2022/01/05 05:06:12;;;;;;;870.05;562.05;;;5.00;99.90;;;;;;5077242;28;20048;-90
2022/01/05 05:08:43;;;;;;;361.77;335.35;;;4.80;99.90;;;;;;5059510;28;20135;-91
2022/01/05 05:11:12;;;;;;;304.88;278.23;;;;;;;;;;5093267;28;20055;-90
2022/01/05 05:13:41;;;;;;;620.22;460.85;;;;;;;;;;5095220;28;20035;-92
2022/01/05 05:16:09;;;;;;;1017.85;480.02;;;4.90;99.90;;;;;;5093935;28;20044;-91
2022/01/05 05:18:38;;;;;;;920.55;432.85;;;4.90;99.90;;;;;;5078608;28;20035;-88
2022/01/05 05:21:07;;;;;;;1640.22;637.05;;;4.80;99.90;;;;;;5059553;28;20565;-90
2022/01/05 05:23:36;;;;;;;1999.90;970.58;;;7.50;99.90;;;;;;5088384;28;20472;-91
2022/01/05 05:26:07;;;;;;;599.88;545.05;;;;;;;;;;5092718;28;20143;-92
2022/01/05 05:28:33;;;;;;;278.23;259.83;;;;;;;;;;5093205;28;20047;-92
2022/01/05 05:30:59;;;;;;;799.40;348.50;;;4.00;99.90;;;;;;5075986;28;20043;-90
2022/01/05 05:33:25;;;;;;;823.45;315.08;;;;;;;;;;5076574;28;20053;-90
2022/01/05 05:35:54;;;;;;;680.95;119.28;;;;;;;;;;5075591;28;20526;-91
2022/01/05 05:38:23;;;;;;;31.13;13.45;;;;;;;;;;5059332;28;20048;-91
2022/01/05 05:40:49;;;;;;;349.48;104.05;;;6.30;99.90;;;;;;5081749;28;20051;-86
2022/01/05 05:43:14;;;;;;;140.02;123.78;;;4.90;99.90;;;;;;5107782;28;20059;-85
2022/01/05 05:45:40;;;;;;;30.92;20.70;;;5.20;99.90;;;;;;5113429;28;20430;-85
2022/01/05 05:48:06;;;;;;;1699.95;698.20;;;;;;;;;;5112741;28;20047;-85
2022/01/05 05:50:33;;;;;;;55.63;48.72;;;4.50;99.90;;;;;;5113003;28;20508;-85
2022/01/05 05:52:59;;;;;;;941.55;199.60;;;6.10;99.90;;;;;;5129198;27;20085;-86
2022/01/05 05:55:25;;;;;;;1136.07;255.05;;;5.10;99.90;;;;;;5092428;28;20074;-86
2022/01/05 05:57:52;;;;;;;1999.90;849.80;;;8.10;99.90;;;;;;5112685;28;20090;-85
2022/01/05 06:00:18;;;;;;;1999.90;991.35;;;5.70;99.90;;;;;;5113520;28;20044;-84
2022/01/05 06:02:43;;;;;;;284.63;159.07;;;5.20;99.90;;;;;;5096349;28;20506;-84
2022/01/05 06:05:09;;;;;;;73.38;49.47;;;5.30;99.90;;;;;;5114338;28;20150;-85
2022/01/05 06:07:36;;;;;;;1201.32;434.33;;;5.30;99.90;;;;;;5113190;28;20173;-85
2022/01/05 06:10:03;;;;;;;54.25;20.40;;;5.90;99.90;;;;;;5113569;28;20408;-83
2022/01/05 06:12:28;;;;;;;741.35;294.55;;;7.30;99.90;;;;;;5114241;28;20161;-83
2022/01/05 06:14:54;;;;;;;172.57;58.45;;;5.20;99.90;;;;;;5112964;28;20512;-84
2022/01/05 06:17:20;;;;;;;1999.90;929.25;;;5.30;99.90;;;;;;5113664;28;20051;-82
2022/01/05 06:19:46;;;;;;;84.68;14.20;;;8.00;99.90;;;;;;5114550;28;20061;-82
2022/01/05 06:22:12;;;;;;;297.42;79.63;;;;;;;;;;5113624;28;20466;-82
2022/01/05 06:24:39;;;;;;;1341.78;348.13;;;5.30;99.90;;;;;;5113915;28;20515;-80
2022/01/05 06:27:09;;;;;;;439.13;113.90;;;7.30;99.90;;;;;;5113941;28;20167;-81
2022/01/05 06:29:36;;;;;;;283.38;98.40;;;5.60;99.90;;;;;;5125935;27;20047;-82
2022/01/05 06:32:02;;;;;;;150.93;43.42;;;;;;;;;;5134261;27;20456;-80
2022/01/05 06:34:28;;;;;;;171.98;31.80;;;5.40;99.90;;;;;;5134990;27;20039;-81
2022/01/05 06:36:54;;;;;;;1999.90;813.70;;;5.30;99.90;;;;;;5133780;27;20045;-78
2022/01/05 06:39:19;;;;;;;1999.90;904.78;;;5.80;99.90;;;;;;5134310;27;20077;-79
2022/01/05 06:41:45;;;;;;;1999.90;687.67;;;7.70;99.90;;;;;;5133311;27;20046;-78
2022/01/05 06:44:12;;;;;;;106.75;75.07;;;7.30;99.90;;;;;;5132850;27;20078;-77
2022/01/05 06:46:37;;;;;;;44.45;20.23;;;7.30;99.90;;;;;;5114079;28;20047;-80
2022/01/05 06:49:03;;;;;;;46.78;10.93;;;5.80;99.90;;;;;;5113386;28;20322;-77
2022/01/05 06:51:29;;;;;;;193.82;48.70;;;5.80;99.90;;;;;;5113853;28;20371;-77
2022/01/05 06:53:55;;;;;;;129.10;21.63;;;4.80;99.90;;;;;;5112020;28;20472;-78
2022/01/05 06:56:20;;;;;;;118.40;29.50;;;7.70;99.90;;;;;;5113706;28;20088;-77
2022/01/05 06:58:46;;;;;;;211.77;33.80;;;6.20;99.90;;;;;;5113722;28;20062;-77
2022/01/05 07:01:12;;;;;;;807.38;188.93;;;6.50;99.90;;;;;;5094555;28;20132;-77
2022/01/05 07:03:38;;;;;;;55.70;11.30;;;7.20;99.90;;;;;;5113470;28;20043;-76
2022/01/05 07:06:04;;;;;;;277.80;37.05;;;4.90;99.90;;;;;;5094782;28;20058;-76
2022/01/05 07:08:30;;;;;;;1624.82;548.95;;;6.00;99.90;;;;;;5112080;28;20051;-76
2022/01/05 07:10:56;;;;;;;71.72;16.65;;;8.10;99.90;;;;;;5112244;28;20040;-78
2022/01/05 07:13:22;;;;;;;85.72;15.40;;;8.30;99.90;;;;;;5113208;28;20050;-77
2022/01/05 07:15:49;;;;;;;24.63;9.82;;;7.80;99.90;;;;;;5113082;28;20130;-76
2022/01/05 07:18:15;;;;;;;24.08;9.77;;;6.40;99.90;;;;;;5112892;28;20052;-76
2022/01/05 07:20:41;;;;;;;459.17;230.75;;;6.00;99.90;;;;;;5113043;28;20098;-76
2022/01/05 07:23:07;;;;;;;98.03;20.65;;;6.00;99.90;;;;;;5112161;28;20508;-76
2022/01/05 07:25:33;;;;;;;1793.25;482.73;;;6.20;99.90;;;;;;5112752;28;20426;-76
2022/01/05 07:27:58;;;;;;;58.40;19.55;;;6.00;99.90;;;;;;5112281;28;20057;-77
2022/01/05 07:30:24;;;;;;;26.42;12.18;;;6.00;99.90;;;;;;5131441;27;20057;-77
2022/01/05 07:32:50;;;;;;;270.73;95.90;;;8.10;99.90;;;;;;5133572;27;20073;-77
2022/01/05 07:35:15;;;;;;;132.88;22.80;;;7.50;99.90;;;;;;5131516;27;20577;-78
2022/01/05 07:37:41;;;;;;;81.10;26.13;;;;;;;;;;5132914;27;20055;-78
2022/01/05 07:40:08;;;;;;;25.83;13.02;;;5.90;99.90;;;;;;5131587;27;20464;-80
2022/01/05 07:42:35;;;;;;;327.60;101.72;;;;;;;;;;5126918;27;20100;-78
2022/01/05 07:45:03;;;;;;;108.25;17.25;;;6.50;99.90;;;;;;5132671;27;20059;-78
2022/01/05 07:47:28;;;;;;;1999.90;707.83;;;8.20;99.90;;;;;;5133040;27;20079;-77
2022/01/05 07:49:54;;;;;;;1350.55;367.42;;;8.00;99.90;;;;;;5132922;27;20093;-78
2022/01/05 07:52:20;;;;;;;1757.80;426.77;;;8.00;99.90;;;;;;5131053;27;20191;-77
2022/01/05 07:54:45;;;;;;;198.02;83.70;;;7.00;99.90;;;;;;5132162;27;20461;-80
2022/01/05 07:57:11;;;;;;;148.50;38.40;;;5.80;99.90;;;;;;5111977;28;20349;-79
2022/01/05 07:59:37;;;;;;;21.70;13.55;;;6.90;99.90;;;;;;5112623;28;20055;-78
2022/01/05 08:02:02;;;;;;;32.35;21.40;;;5.70;99.90;;;;;;5111653;28;20050;-78
2022/01/05 08:04:28;;;;;;;93.75;40.83;;;6.10;99.90;;;;;;5112478;28;20039;-78
2022/01/05 08:06:54;;;;;;;121.25;29.23;;;7.00;99.90;;;;;;5110540;28;20043;-79
2022/01/05 08:09:20;;;;;;;681.15;124.28;;;;;;;;;;5111993;28;20138;-78
2022/01/05 08:11:46;;;;;;;364.13;238.32;;;6.90;99.90;;;;;;5112111;28;20125;-80
2022/01/05 08:14:12;;;;;;;312.25;68.32;;;6.20;99.90;;;;;;5111754;28;20093;-79
2022/01/05 08:16:37;;;;;;;501.48;86.38;;;6.40;99.90;;;;;;5112341;28;20047;-81
2022/01/05 08:19:03;;;;;;;108.57;35.97;;;6.80;99.90;;;;;;5111665;28;20112;-79
2022/01/05 08:21:29;;;;;;;95.05;68.93;;;8.20;99.90;;;;;;5111043;28;20055;-80
2022/01/05 08:23:55;;;;;;;21.00;10.80;;;6.80;99.90;;;;;;5109929;28;20047;-80
2022/01/05 08:26:20;;;;;;;26.23;9.57;;;5.70;99.90;;;;;;5111290;28;20048;-81
2022/01/05 08:28:46;;;;;;;24.20;18.02;;;6.10;99.90;;;;;;5116704;27;20050;-81
2022/01/05 08:31:12;;;;;;;561.33;379.88;;;8.60;99.90;;;;;;5131925;27;20086;-82
2022/01/05 08:33:38;;;;;;;128.02;88.90;;;7.60;99.90;;;;;;5132233;27;20475;-81
2022/01/05 08:36:04;;;;;;;1971.40;650.58;;;6.30;99.90;;;;;;5130521;27;20460;-82
2022/01/05 08:38:32;;;;;;;213.25;76.90;;;6.80;99.90;;;;;;5130123;27;20078;-81
2022/01/05 08:40:57;;;;;;;30.13;15.00;;;7.50;99.90;;;;;;5131671;27;20127;-81
2022/01/05 08:43:23;;;;;;;605.75;149.32;;;8.40;99.90;;;;;;5131928;27;20051;-82
2022/01/05 08:45:49;;;;;;;459.70;159.73;;;9.00;99.90;;;;;;5116745;27;20059;-83
2022/01/05 08:48:16;;;;;;;58.50;14.13;;;;;;;;;;5111331;28;20086;-81
2022/01/05 08:50:42;;;;;;;31.48;10.82;;;6.80;99.90;;;;;;5111593;28;20051;-82
2022/01/05 08:53:08;;;;;;;1231.60;222.63;;;8.50;99.90;;;;;;5110660;28;20502;-82
2022/01/05 08:55:43;;;;;;;25.95;10.20;;;9.50;99.90;;;;;;5111131;27;20050;-81
2022/01/05 08:58:10;;;;;;;29.48;15.55;;;5.50;99.90;;;;;;5111017;28;20051;-81
2022/01/05 09:00:36;;;;;;;54.40;43.53;;;6.70;99.90;;;;;;5110415;28;20139;-82
2022/01/05 09:03:03;;;;;;;217.68;56.05;;;6.80;99.90;;;;;;5111450;28;20055;-83
2022/01/05 09:05:30;;;;;;;24.27;14.85;;;8.80;99.90;;;;;;5109682;28;20048;-82
2022/01/05 09:07:56;;;;;;;28.83;21.17;;;8.80;99.90;;;;;;5111041;28;20051;-80
2022/01/05 09:10:21;;;;;;;27.27;11.20;;;7.60;99.90;;;;;;5110282;28;20059;-80
2022/01/05 09:12:47;;;;;;;29.17;16.58;;;9.30;99.90;;;;;;5109941;28;20044;-80
2022/01/05 09:15:14;;;;;;;85.38;20.60;;;;;;;;;;5110723;28;20047;-83
2022/01/05 09:17:39;;;;;;;28.80;11.15;;;7.40;99.90;;;;;;5110817;28;20047;-81
2022/01/05 09:20:06;;;;;;;18.45;8.88;;;7.80;99.90;;;;;;5109747;28;20058;-82
2022/01/05 09:22:37;;;;;;;21.47;8.93;;;7.00;99.90;;;;;;5110645;28;20044;-81
2022/01/05 09:25:09;;;;;;;70.53;17.13;;;10.00;99.90;;;;;;5110932;28;20059;-81
2022/01/05 09:27:36;;;;;;;46.50;26.30;;;6.60;99.90;;;;;;5111330;28;20044;-82
2022/01/05 09:30:07;;;;;;;34.40;13.57;;;6.50;99.90;;;;;;5126499;28;20049;-80
2022/01/05 09:32:33;;;;;;;59.60;10.20;;;7.00;99.90;;;;;;5133747;27;20050;-81
2022/01/05 09:34:58;;;;;;;24.98;10.77;;;7.80;99.90;;;;;;5134758;27;20054;-82
2022/01/05 09:37:32;;;;;;;27.33;13.07;;;5.70;99.90;;;;;;5133590;27;20047;-81
2022/01/05 09:42:43;;;;;;;34.25;12.15;;;9.00;99.90;;;;;;5132355;27;20104;-81
2022/01/05 09:45:14;;;;;;;24.15;12.25;;;5.90;99.90;;;;;;5135693;27;20062;-81
2022/01/05 09:48:00;;;;;;;28.35;12.43;;;6.90;99.90;;;;;;5135774;27;20047;-82
2022/01/05 09:50:26;;;;;;;27.52;13.15;;;7.20;99.90;;;;;;5135097;27;20043;-82
2022/01/05 09:52:52;;;;;;;217.82;71.10;;;8.60;99.90;;;;;;5135043;27;20474;-83
2022/01/05 09:55:18;;;;;;;84.30;23.00;;;6.70;99.90;;;;;;5128258;27;20070;-82
2022/01/05 09:57:45;;;;;;;28.70;11.88;;;7.40;99.90;;;;;;5115014;28;20151;-83
2022/01/05 10:00:13;;;;;;;35.00;11.23;;;9.50;99.90;;;;;;5114873;28;20039;-82
2022/01/05 10:02:41;;;;;;;35.97;10.02;;;6.80;99.90;;;;;;5114735;28;20051;-81
2022/01/05 10:05:12;;;;;;;38.47;16.33;;;9.60;99.90;;;;;;5114434;28;20036;-82
2022/01/05 10:07:38;;;;;;;50.00;12.60;;;8.40;99.90;;;;;;5114161;28;20055;-82
2022/01/05 10:10:05;;;;;;;45.10;14.73;;;7.60;99.90;;;;;;5114316;28;20059;-82
2022/01/05 10:12:31;;;;;;;44.00;11.07;;;7.60;99.90;;;;;;5114038;28;20047;-81
2022/01/05 10:14:57;;;;;;;111.97;23.50;;;8.00;99.90;;;;;;5113069;28;20048;-80
2022/01/05 10:17:25;;;;;;;46.80;13.57;;;7.70;99.90;;;;;;5113779;28;20050;-81
2022/01/05 10:19:58;;;;;;;;;;;7.70;99.90;;;;;;5114621;28;20126;-82
2022/01/05 10:22:34;;;;;;;145.02;38.58;;;6.70;99.90;;;;;;5113536;28;19926;-81
2022/01/05 10:25:07;;;;;;;47.05;10.95;;;8.00;99.90;;;;;;5113877;28;20547;-83
2022/01/05 10:27:34;;;;;;;412.90;36.88;;;7.60;99.90;;;;;;5114071;28;20051;-80
2022/01/05 10:30:05;;;;;;;41.13;12.27;;;8.00;99.90;;;;;;5129027;27;20161;-81
2022/01/05 10:32:33;;;;;;;59.47;12.82;;;7.50;99.90;;;;;;5133991;27;20043;-82
2022/01/05 10:34:59;;;;;;;;;;;10.60;99.90;;;;;;5134015;27;20551;-81
2022/01/05 10:37:25;;;;;;;35.47;9.25;;;8.00;99.90;;;;;;5133708;27;19919;-81
2022/01/05 10:40:04;;;;;;;63.50;13.88;;;8.80;99.90;;;;;;5115963;27;20092;-82
2022/01/05 10:42:34;;;;;;;157.30;34.20;;;8.20;99.90;;;;;;5133696;27;20058;-81
2022/01/05 10:45:02;;;;;;;43.47;10.85;;;8.30;99.90;;;;;;5133050;27;20474;-82
2022/01/05 10:47:28;;;;;;;;;;;8.00;99.90;;;;;;5133111;27;20383;-82
2022/01/05 10:49:54;;;;;;;30.77;10.18;;;8.20;99.90;;;;;;5134402;27;20002;-82
2022/01/05 10:52:32;;;;;;;48.50;11.27;;;7.90;99.90;;;;;;5133373;27;20047;-82
2022/01/05 10:55:14;;;;;;;143.55;22.08;;;7.60;99.90;;;;;;5133549;27;20614;-83
2022/01/05 10:58:10;;;;;;;42.92;12.40;;;8.30;99.90;;;;;;5133738;27;20059;-82
2022/01/05 11:00:45;;;;;;;149.90;26.30;;;8.00;99.90;;;;;;5133494;27;20084;-82
2022/01/05 11:03:40;;;;;;;60.67;14.10;;;10.10;99.90;;;;;;5132649;27;20050;-82
2022/01/05 11:06:10;;;;;;;49.90;12.55;;;8.30;99.90;;;;;;5134168;27;20087;-82
2022/01/05 11:08:58;;;;;;;41.85;18.33;;;7.90;99.90;;;;;;5132789;27;20082;-84
2022/01/05 11:11:44;;;;;;;58.75;19.75;;;6.60;99.90;;;;;;5133596;27;20047;-83
2022/01/05 11:14:16;;;;;;;199.60;29.27;;;10.00;99.90;;;;;;5133708;27;20054;-83
2022/01/05 11:16:48;;;;;;;44.08;24.88;;;7.80;99.90;;;;;;5133406;27;20387;-82
2022/01/05 11:19:26;;;;;;;44.13;28.80;;;7.80;99.90;;;;;;5134006;27;20035;-84
2022/01/05 11:22:17;;;;;;;43.22;29.27;;;7.90;99.90;;;;;;5130956;27;20428;-82
2022/01/05 11:24:54;;;;;;;45.83;18.35;;;7.90;99.90;;;;;;5112290;28;20044;-81
2022/01/05 11:27:24;;;;;;;35.85;20.50;;;8.30;99.90;;;;;;5112198;28;20505;-81
2022/01/05 11:29:51;;;;;;;40.00;21.33;;;8.40;99.90;;;;;;5121942;27;20039;-82
2022/01/05 11:32:20;;;;;;;32.60;16.80;;;10.00;99.90;;;;;;5112881;28;20043;-82
2022/01/05 11:34:50;;;;;;;29.33;11.45;;;10.80;99.90;;;;;;5112188;28;20321;-81
2022/01/05 11:37:17;;;;;;;39.25;19.17;;;7.90;99.90;;;;;;5112401;28;20100;-82
2022/01/05 11:39:55;;;;;;;97.57;26.27;;;8.40;99.90;;;;;;5111744;28;20039;-83
2022/01/05 11:42:29;;;;;;;29.75;7.15;;;8.20;99.90;;;;;;5114525;27;20054;-84
2022/01/05 11:44:56;;;;;;;29.48;7.95;;;10.50;99.90;;;;;;5133019;27;20135;-81
2022/01/05 11:47:32;;;;;;;78.82;13.60;;;9.50;99.90;;;;;;5133019;27;20051;-80
2022/01/05 11:50:13;;;;;;;174.95;43.10;;;10.30;99.90;;;;;;5133140;27;20477;-82
2022/01/05 11:53:06;;;;;;;84.70;22.85;;;7.90;99.90;;;;;;5131984;27;20537;-81
2022/01/05 11:55:58;;;;;;;28.15;9.05;;;8.30;99.90;;;;;;5131708;27;20049;-81
2022/01/05 11:58:26;;;;;;;39.70;22.60;;;8.40;99.90;;;;;;5133058;27;20126;-83
2022/01/05 12:01:16;;;;;;;42.10;7.88;;;8.60;99.90;;;;;;5132718;27;20082;-81
2022/01/05 12:03:56;;;;;;;53.78;11.15;;;8.40;99.90;;;;;;5132481;27;20490;-81
2022/01/05 12:06:24;;;;;;;30.83;6.38;;;8.70;99.90;;;;;;5132494;27;20047;-82
2022/01/05 12:08:51;;;;;;;23.40;8.52;;;8.50;99.90;;;;;;5131345;27;20494;-81
2022/01/05 12:11:41;;;;;;;334.20;82.15;;;10.40;99.90;;;;;;5131218;27;20047;-79
2022/01/05 12:14:22;;;;;;;30.88;12.88;;;10.20;99.90;;;;;;5110768;28;20036;-80
2022/01/05 12:17:06;;;;;;;104.60;31.40;;;8.00;99.90;;;;;;5111387;28;20047;-81
2022/01/05 12:19:34;;;;;;;67.18;25.25;;;7.20;99.90;;;;;;5111680;28;20051;-81
2022/01/05 12:22:03;;;;;;;24.63;13.23;;;7.90;99.90;;;;;;5111589;28;20109;-80
2022/01/05 12:25:00;;;;;;;272.02;39.30;;;10.20;99.90;;;;;;5111616;28;20096;-89
2022/01/05 12:27:32;;;;;;;34.40;13.60;;;8.20;99.90;;;;;;5110268;28;20122;-82
2022/01/05 12:29:59;;;;;;;345.05;59.53;;;7.90;99.90;;;;;;5122464;27;20125;-82
2022/01/05 12:32:39;;;;;;;36.20;8.98;;;8.20;99.90;;;;;;5110191;28;20043;-82
2022/01/05 12:35:18;;;;;;;31.23;10.70;;;8.20;99.90;;;;;;5111693;28;20441;-82
2022/01/05 12:37:43;;;;;;;32.28;10.48;;;8.10;99.90;;;;;;5110946;28;20044;-82
2022/01/05 12:40:33;;;;;;;72.30;28.58;;;8.60;99.90;;;;;;5110037;28;20051;-80
2022/01/05 12:43:08;;;;;;;329.63;64.53;;;8.60;99.90;;;;;;5111713;28;20056;-81
2022/01/05 12:45:43;;;;;;;49.05;29.60;;;9.00;99.90;;;;;;5111133;28;20055;-82
2022/01/05 12:48:32;;;;;;;440.73;131.48;;;8.40;99.90;;;;;;5110110;28;20039;-82
2022/01/05 12:51:20;;;;;;;479.15;149.13;;;8.40;99.90;;;;;;5111666;28;20043;-82
2022/01/05 12:54:00;;;;;;;41.28;25.88;;;8.40;99.90;;;;;;5110336;28;20427;-82
2022/01/05 12:56:33;;;;;;;70.57;64.18;;;8.60;99.90;;;;;;5111618;28;20044;-82
2022/01/05 12:59:00;;;;;;;115.15;27.30;;;8.60;99.90;;;;;;5111579;28;20040;-82
2022/01/05 13:01:29;;;;;;;46.67;23.08;;;9.80;99.90;;;;;;5111445;28;20043;-83
2022/01/05 13:03:57;;;;;;;246.73;83.82;;;9.50;99.90;;;;;;5111106;28;20051;-83
2022/01/05 13:06:27;;;;;;;222.90;107.53;;;9.20;99.90;;;;;;5110758;28;20112;-82
2022/01/05 13:09:05;;;;;;;76.95;69.80;;;8.90;99.90;;;;;;5108745;28;20741;-82
2022/01/05 13:11:45;;;;;;;310.45;277.88;;;8.90;99.90;;;;;;5111326;28;20532;-83
2022/01/05 13:14:20;;;;;;;270.30;218.23;;;8.50;99.90;;;;;;5111231;28;20134;-84
2022/01/05 13:16:50;;;;;;;355.45;232.07;;;8.70;99.90;;;;;;5109663;28;20120;-82